Time;durP1;ratioP1;P1;durP2;ratioP2;P2;SDS_P1;SDS_P2;PMS_P1;PMS_P2;Temp;Humidity;BMP_temperature;BMP_pressure;BME280_temperature;BME280_humidity;BME280_pressure;Samples;Min_cycle;Max_cycle;Signal;HPM_P1;HPM_P2
2022/11/21 00:01:13;;;;;;;74.73;38.23;;;;;;;-0.02;85.17;98139.86;2245585;79;20984;-79
2022/11/21 00:04:13;;;;;;;80.63;42.70;;;;;;;0.02;84.94;98148.59;2245692;79;20932;-80
2022/11/21 00:07:13;;;;;;;75.90;40.67;;;;;;;-0.01;84.86;98148.03;2245974;79;20952;-79
2022/11/21 00:10:14;;;;;;;77.77;39.53;;;;;;;0.01;84.82;98151.97;2245608;79;20947;-80
2022/11/21 00:13:14;;;;;;;73.87;38.23;;;;;;;0.02;84.89;98144.75;2245733;79;20889;-79
2022/11/21 00:16:15;;;;;;;75.23;40.47;;;;;;;0.06;85.03;98151.35;2245485;79;20924;-80
2022/11/21 00:19:15;;;;;;;76.37;40.27;;;;;;;0.10;84.89;98154.92;2246004;79;20896;-79
2022/11/21 00:22:15;;;;;;;72.83;38.43;;;;;;;0.08;84.69;98151.02;2245700;79;20924;-80
2022/11/21 00:25:16;;;;;;;72.03;38.07;;;;;;;0.11;84.54;98148.98;2245659;79;20931;-79
2022/11/21 00:28:16;;;;;;;78.30;40.53;;;;;;;0.10;84.42;98141.69;2245706;79;20865;-79
2022/11/21 00:31:17;;;;;;;78.73;37.70;;;;;;;0.09;84.38;98132.64;2245352;79;21015;-81
2022/11/21 00:34:17;;;;;;;67.23;37.23;;;;;;;0.08;84.50;98132.17;2245627;79;20916;-80
2022/11/21 00:37:17;;;;;;;71.77;37.83;;;;;;;0.06;84.27;98135.95;2245894;79;20873;-80
2022/11/21 00:40:18;;;;;;;75.00;40.77;;;;;;;0.04;84.32;98132.45;2245695;79;20901;-79
2022/11/21 00:43:18;;;;;;;73.97;38.90;;;;;;;0.05;84.37;98124.34;2245866;79;20931;-79
2022/11/21 00:46:19;;;;;;;72.57;38.67;;;;;;;0.05;84.37;98119.22;2245245;79;20936;-79
2022/11/21 00:49:19;;;;;;;67.43;36.53;;;;;;;0.08;84.33;98112.92;2241097;79;20960;-79
2022/11/21 00:52:20;;;;;;;69.13;36.93;;;;;;;0.06;84.42;98119.28;2239171;79;20893;-79
2022/11/21 00:55:20;;;;;;;68.63;37.40;;;;;;;0.04;84.26;98111.92;2238904;79;21344;-79
2022/11/21 00:58:20;;;;;;;69.33;36.47;;;;;;;-0.01;84.24;98114.67;2238954;79;20885;-79
2022/11/21 01:01:21;;;;;;;71.00;38.20;;;;;;;-0.08;84.18;98104.97;2238778;79;20937;-80
2022/11/21 01:04:21;;;;;;;77.10;37.97;;;;;;;-0.11;84.25;98108.70;2239002;79;20905;-79
2022/11/21 01:07:22;;;;;;;69.27;38.23;;;;;;;-0.14;84.33;98112.41;2238847;79;20932;-79
2022/11/21 01:10:22;;;;;;;80.50;42.83;;;;;;;-0.18;84.33;98096.42;2238886;79;20913;-79
2022/11/21 01:13:22;;;;;;;95.33;39.67;;;;;;;-0.20;84.46;98099.33;2239266;79;20929;-79
2022/11/21 01:16:23;;;;;;;77.10;40.97;;;;;;;-0.22;84.49;98099.67;2238923;79;20944;-80
2022/11/21 01:19:23;;;;;;;74.37;38.13;;;;;;;-0.26;84.44;98089.70;2239119;79;20909;-79
2022/11/21 01:22:23;;;;;;;75.50;39.37;;;;;;;-0.27;84.62;98077.69;2238877;79;20920;-79
2022/11/21 01:25:24;;;;;;;73.87;38.20;;;;;;;-0.26;84.73;98079.44;2238907;80;20896;-79
2022/11/21 01:28:24;;;;;;;77.97;39.77;;;;;;;-0.25;84.87;98076.47;2239042;79;20905;-80
2022/11/21 01:31:25;;;;;;;69.13;37.70;;;;;;;-0.23;84.91;98071.88;2238942;79;20933;-79
2022/11/21 01:34:25;;;;;;;70.43;37.90;;;;;;;-0.19;84.96;98066.05;2239032;79;20940;-79
2022/11/21 01:37:26;;;;;;;74.03;39.57;;;;;;;-0.17;84.89;98067.40;2239253;79;20939;-80
2022/11/21 01:40:26;;;;;;;101.60;38.57;;;;;;;-0.17;84.79;98066.99;2239385;79;20905;-80
2022/11/21 01:43:26;;;;;;;82.10;37.27;;;;;;;-0.18;84.80;98069.09;2239174;79;20939;-79
2022/11/21 01:46:27;;;;;;;79.67;37.63;;;;;;;-0.19;84.74;98063.48;2239078;79;20920;-80
2022/11/21 01:49:27;;;;;;;72.70;37.87;;;;;;;-0.23;84.75;98060.33;2241016;79;20944;-81
2022/11/21 01:52:28;;;;;;;74.10;37.00;;;;;;;-0.26;84.69;98060.20;2242174;79;20908;-79
2022/11/21 01:55:28;;;;;;;64.70;35.63;;;;;;;-0.32;84.55;98066.36;2242126;79;21331;-80
2022/11/21 01:58:28;;;;;;;66.87;34.93;;;;;;;-0.42;84.24;98068.95;2242155;79;20913;-80
2022/11/21 02:01:29;;;;;;;70.97;36.17;;;;;;;-0.57;84.06;98068.70;2242139;79;20964;-79
2022/11/21 02:04:30;;;;;;;70.47;35.03;;;;;;;-0.70;84.27;98073.30;2242183;79;20926;-79
2022/11/21 02:07:30;;;;;;;63.53;34.00;;;;;;;-0.81;84.18;98073.25;2242110;79;20902;-80
2022/11/21 02:10:31;;;;;;;65.40;34.83;;;;;;;-0.92;83.99;98070.98;2242187;79;20929;-79
2022/11/21 02:13:31;;;;;;;62.07;32.70;;;;;;;-1.09;83.90;98073.68;2242304;79;20885;-80
2022/11/21 02:16:32;;;;;;;65.10;36.43;;;;;;;-1.25;83.46;98073.80;2242021;79;21280;-79
2022/11/21 02:19:32;;;;;;;60.73;33.50;;;;;;;-1.34;83.70;98076.82;2241969;79;20905;-79
2022/11/21 02:22:32;;;;;;;66.33;34.53;;;;;;;-1.41;83.59;98072.63;2242141;79;20908;-79
2022/11/21 02:25:33;;;;;;;66.47;34.23;;;;;;;-1.46;83.91;98077.54;2242260;79;20968;-79
2022/11/21 02:28:37;;;;;;;75.77;37.10;;;;;;;-1.51;83.67;98079.01;2242073;79;21252;-79
2022/11/21 02:31:36;;;;;;;72.47;35.83;;;;;;;-1.58;83.70;98089.77;2238862;79;20992;-84
2022/11/21 02:34:36;;;;;;;106.00;38.07;;;;;;;-1.61;83.65;98096.90;2242180;79;20909;-79
2022/11/21 02:37:36;;;;;;;108.27;37.47;;;;;;;-1.65;83.88;98091.16;2242247;79;20908;-80
2022/11/21 02:40:37;;;;;;;105.57;36.97;;;;;;;-1.62;84.69;98081.47;2241919;79;21324;-79
2022/11/21 02:43:37;;;;;;;90.53;34.20;;;;;;;-1.60;84.50;98077.30;2242180;79;20948;-79
2022/11/21 02:46:38;;;;;;;87.80;34.20;;;;;;;-1.67;83.43;98086.77;2242292;79;20885;-81
2022/11/21 02:49:38;;;;;;;127.80;36.47;;;;;;;-1.82;83.01;98083.06;2245922;79;21319;-79
2022/11/21 02:52:39;;;;;;;66.23;34.97;;;;;;;-0.79;98.45;98079.72;2249035;79;20912;-79
2022/11/21 02:55:39;;;;;;;63.80;32.03;;;;;;;-0.91;86.52;98073.62;2249014;79;21339;-80
2022/11/21 02:58:39;;;;;;;67.17;33.90;;;;;;;-1.27;83.97;98070.70;2248598;79;20920;-80
2022/11/21 03:01:40;;;;;;;63.10;33.37;;;;;;;-1.57;83.45;98079.13;2248868;79;20952;-79
2022/11/21 03:04:40;;;;;;;62.50;33.00;;;;;;;-1.85;82.85;98079.48;2248844;79;20880;-79
2022/11/21 03:07:41;;;;;;;66.13;32.20;;;;;;;-2.02;82.99;98076.11;2249118;79;21288;-79
2022/11/21 03:10:41;;;;;;;65.03;32.33;;;;;;;-2.20;82.84;98070.98;2248826;79;20936;-80
2022/11/21 03:13:41;;;;;;;97.23;33.50;;;;;;;-2.34;82.97;98068.16;2248334;79;20929;-80
2022/11/21 03:16:42;;;;;;;72.00;32.43;;;;;;;-2.47;82.92;98067.06;2248975;79;20920;-78
2022/11/21 03:19:42;;;;;;;85.80;32.10;;;;;;;-2.57;82.83;98069.56;2248985;79;20947;-82
2022/11/21 03:22:43;;;;;;;123.90;33.77;;;;;;;-2.66;82.81;98078.02;2248826;79;20920;-81
2022/11/21 03:25:43;;;;;;;91.63;34.17;;;;;;;-2.78;82.50;98078.66;2249111;79;20897;-78
2022/11/21 03:28:43;;;;;;;133.97;35.43;;;;;;;-2.86;82.66;98069.73;2249591;79;20971;-78
2022/11/21 03:31:44;;;;;;;89.57;32.33;;;;;;;-2.90;82.88;98072.53;2248780;79;21359;-81
2022/11/21 03:34:44;;;;;;;56.40;27.10;;;;;;;-2.95;82.80;98068.86;2248829;79;20935;-80
2022/11/21 03:37:45;;;;;;;58.17;28.40;;;;;;;-3.05;82.32;98067.91;2249183;79;20936;-79
2022/11/21 03:40:45;;;;;;;61.50;29.87;;;;;;;-3.15;82.48;98077.16;2248993;79;20904;-78
2022/11/21 03:43:45;;;;;;;50.43;26.80;;;;;;;-3.23;82.37;98070.38;2248838;79;21284;-81
2022/11/21 03:46:46;;;;;;;56.63;27.57;;;;;;;-3.29;82.45;98060.72;2248973;79;20948;-81
2022/11/21 03:49:46;;;;;;;57.30;29.20;;;;;;;-3.35;82.32;98046.36;2246698;79;20952;-80
2022/11/21 03:52:47;;;;;;;55.03;27.70;;;;;;;-3.41;82.13;98053.69;2245674;79;21312;-80
2022/11/21 03:55:47;;;;;;;59.43;28.27;;;;;;;-3.47;82.38;98053.33;2244711;79;21272;-81
2022/11/21 03:58:47;;;;;;;60.03;28.60;;;;;;;-3.55;82.61;98046.94;2244783;79;20924;-83
2022/11/21 04:01:48;;;;;;;115.60;32.27;;;;;;;-3.56;83.15;98036.26;2244568;79;21028;-80
2022/11/21 04:04:48;;;;;;;61.70;29.10;;;;;;;-3.57;83.64;98029.41;2244676;79;20913;-80
2022/11/21 04:07:49;;;;;;;71.50;28.90;;;;;;;-3.56;83.39;98022.23;2244881;79;20947;-81
2022/11/21 04:10:49;;;;;;;68.07;29.40;;;;;;;-3.59;83.10;98020.39;2245537;79;20923;-78
2022/11/21 04:13:52;;;;;;;61.43;28.43;;;;;;;-3.61;83.52;98022.38;2245514;79;20932;-80
2022/11/21 04:16:53;;;;;;;53.40;26.73;;;;;;;-3.63;83.03;98018.47;2245652;79;20892;-80
2022/11/21 04:19:53;;;;;;;53.70;26.00;;;;;;;-3.69;82.60;98025.80;2245128;79;20927;-80
2022/11/21 04:22:54;;;;;;;59.97;27.40;;;;;;;-3.75;82.23;98025.86;2245212;79;20916;-80
2022/11/21 04:25:54;;;;;;;54.27;27.13;;;;;;;-3.81;82.00;98033.19;2244839;79;20952;-80
2022/11/21 04:28:54;;;;;;;59.93;25.70;;;;;;;-3.84;82.14;98030.07;2244802;79;20896;-80
2022/11/21 04:31:55;;;;;;;53.73;27.07;;;;;;;-3.91;81.74;98025.43;2244764;79;21423;-80
2022/11/21 04:34:55;;;;;;;52.63;26.23;;;;;;;-3.97;81.81;98020.00;2245540;79;20951;-80
2022/11/21 04:37:56;;;;;;;63.20;28.37;;;;;;;-3.96;82.21;98014.11;2246038;79;20940;-81
2022/11/21 04:40:56;;;;;;;62.80;29.67;;;;;;;-4.02;82.00;98006.13;2245540;79;20951;-77
2022/11/21 04:43:57;;;;;;;63.20;32.17;;;;;;;-4.12;82.76;98008.56;2244734;79;20924;-80
2022/11/21 04:46:58;;;;;;;60.73;29.80;;;;;;;-4.09;84.91;98004.91;2244856;79;20928;-80
2022/11/21 04:49:57;;;;;;;60.33;30.00;;;;;;;-4.10;83.88;97995.91;2245818;79;21389;-78
2022/11/21 04:52:58;;;;;;;64.57;29.70;;;;;;;-4.11;84.43;97993.75;2246911;79;20924;-78
2022/11/21 04:55:59;;;;;;;59.00;29.07;;;;;;;-4.03;85.59;97994.17;2247042;79;20888;-78
2022/11/21 04:58:59;;;;;;;58.33;29.97;;;;;;;-4.04;85.83;97992.02;2247241;79;21360;-78
2022/11/21 05:01:59;;;;;;;59.67;29.13;;;;;;;-4.03;85.80;97991.63;2247403;79;21031;-78
2022/11/21 05:05:00;;;;;;;61.07;29.77;;;;;;;-4.04;85.90;97998.39;2248007;79;20893;-78
2022/11/21 05:08:00;;;;;;;61.97;29.60;;;;;;;-4.02;86.04;97992.11;2248248;79;20980;-79
2022/11/21 05:14:16;;;;;;;;;;;;;;;-4.00;85.39;97993.06;2250110;79;20947;-80
2022/11/21 05:17:16;;;;;;;62.03;29.57;;;;;;;-3.99;85.40;97991.00;2247832;79;20082;-78
2022/11/21 05:20:17;;;;;;;59.13;27.93;;;;;;;-3.98;85.89;97987.65;2247867;79;20920;-80
2022/11/21 05:23:17;;;;;;;64.00;30.03;;;;;;;-3.95;85.69;97987.42;2246953;79;20932;-79
2022/11/21 05:26:17;;;;;;;73.53;31.73;;;;;;;-3.93;86.25;97987.50;2246647;79;20913;-79
2022/11/21 05:29:18;;;;;;;71.67;33.50;;;;;;;-3.92;86.14;97984.16;2246736;79;20896;-79
2022/11/21 05:32:18;;;;;;;77.43;35.53;;;;;;;-3.87;86.51;97981.06;2245616;79;21772;-80
2022/11/21 05:35:19;;;;;;;115.47;35.37;;;;;;;-3.76;86.90;97974.38;2247408;79;21364;-81
2022/11/21 05:38:19;;;;;;;67.40;31.37;;;;;;;-3.74;86.47;97974.94;2246487;79;20936;-81
2022/11/21 05:41:19;;;;;;;60.20;27.87;;;;;;;-3.70;86.47;97969.61;2246460;79;20912;-79
2022/11/21 05:44:20;;;;;;;61.27;30.30;;;;;;;-3.76;85.49;97975.26;2246919;79;20948;-79
2022/11/21 05:47:20;;;;;;;75.77;35.20;;;;;;;-3.81;85.92;97975.41;2246589;79;20955;-80
2022/11/21 05:50:21;;;;;;;75.87;37.03;;;;;;;-3.82;86.15;97976.61;2243951;79;20948;-80
2022/11/21 05:53:21;;;;;;;119.50;44.10;;;;;;;-3.79;86.84;97970.39;2242515;79;20920;-80
2022/11/21 05:56:21;;;;;;;83.50;40.70;;;;;;;-3.73;87.97;97968.17;2243493;79;20920;-79
2022/11/21 05:59:22;;;;;;;90.17;38.80;;;;;;;-3.63;88.26;97970.01;2243782;79;20913;-79
2022/11/21 06:05:41;;;;;;;89.50;40.13;;;;;;;-3.52;88.13;97982.05;2244535;79;20950;-79
2022/11/21 06:08:42;;;;;;;95.30;43.80;;;;;;;-3.40;87.94;97981.45;2244600;79;20921;-79
2022/11/21 06:11:42;;;;;;;88.90;39.87;;;;;;;-3.24;88.77;97980.56;2244286;79;20936;-80
2022/11/21 06:14:42;;;;;;;92.70;44.47;;;;;;;-3.16;88.79;97977.12;2243439;79;20902;-80
2022/11/21 06:17:43;;;;;;;92.70;43.93;;;;;;;-3.11;89.69;97971.86;2243028;79;20955;-80
2022/11/21 06:20:46;;;;;;;93.03;47.50;;;;;;;-3.00;90.11;97972.00;2243228;79;21308;-80
2022/11/21 06:23:46;;;;;;;96.87;46.33;;;;;;;-2.94;90.29;97971.02;2243340;79;20900;-81
2022/11/21 06:26:47;;;;;;;95.37;48.67;;;;;;;-2.87;90.35;97964.14;2243529;79;20916;-81
2022/11/21 06:29:47;;;;;;;107.67;48.73;;;;;;;-2.84;90.58;97973.64;2243983;79;20917;-80
2022/11/21 06:32:48;;;;;;;103.97;50.40;;;;;;;-2.80;90.70;97972.59;2243731;79;20999;-79
2022/11/21 06:35:49;;;;;;;106.30;48.40;;;;;;;-2.76;90.47;97969.38;2242903;79;21008;-80
2022/11/21 06:38:49;;;;;;;106.40;52.93;;;;;;;-2.69;90.56;97963.77;2242841;79;20981;-80
2022/11/21 06:41:50;;;;;;;151.20;50.17;;;;;;;-2.63;90.90;97958.97;2242762;79;20905;-80
2022/11/21 06:44:52;;;;;;;103.33;48.93;;;;;;;-2.58;90.63;97956.27;2242833;79;20913;-80
2022/11/21 06:47:50;;;;;;;107.40;52.90;;;;;;;-2.50;91.71;97958.31;2243373;79;20914;-79
2022/11/21 06:50:51;;;;;;;116.67;54.53;;;;;;;-2.41;91.32;97962.59;2243377;79;21635;-80
2022/11/21 06:53:54;;;;;;;112.10;53.67;;;;;;;-2.32;91.17;97954.08;2243781;79;20913;-79
2022/11/21 06:56:54;;;;;;;114.13;53.60;;;;;;;-2.23;91.29;97949.80;2244416;79;20916;-79
2022/11/21 06:59:52;;;;;;;112.87;55.50;;;;;;;-2.15;91.10;97953.19;2244385;79;20916;-79
2022/11/21 07:02:52;;;;;;;932.30;112.10;;;;;;;-2.05;91.16;97956.65;2243903;79;20944;-80
2022/11/21 07:05:57;;;;;;;155.07;60.10;;;;;;;-1.92;91.27;97955.53;2242101;79;20940;-80
2022/11/21 07:08:53;;;;;;;114.53;57.97;;;;;;;-1.80;91.22;97953.53;2243134;79;20908;-80
2022/11/21 07:11:54;;;;;;;123.03;62.40;;;;;;;-1.70;91.10;97953.17;2242514;79;21430;-79
2022/11/21 07:14:54;;;;;;;115.60;57.77;;;;;;;-1.60;91.36;97945.51;2242965;79;20912;-79
2022/11/21 07:17:55;;;;;;;106.97;56.40;;;;;;;-1.52;91.03;97941.61;2242740;79;20960;-80
2022/11/21 07:20:55;;;;;;;127.47;63.73;;;;;;;-1.46;90.70;97932.05;2242918;79;20957;-79
2022/11/21 07:23:55;;;;;;;123.30;63.07;;;;;;;-1.45;90.78;97935.95;2242209;79;20917;-79
2022/11/21 07:26:56;;;;;;;127.60;63.13;;;;;;;-1.36;91.15;97936.34;2242269;79;20902;-79
2022/11/21 07:29:57;;;;;;;130.70;66.50;;;;;;;-1.21;91.40;97939.09;2242522;79;20908;-79
2022/11/21 07:32:57;;;;;;;132.57;66.17;;;;;;;-1.12;91.45;97927.56;2242195;79;21441;-80
2022/11/21 07:35:57;;;;;;;152.93;70.77;;;;;;;-1.01;91.67;97924.17;2242713;79;20952;-81
2022/11/21 07:38:58;;;;;;;146.80;67.50;;;;;;;-0.94;91.62;97926.18;2242799;79;20881;-81
2022/11/21 07:41:58;;;;;;;124.07;62.60;;;;;;;-0.90;91.62;97934.46;2243105;79;20897;-80
2022/11/21 07:44:58;;;;;;;143.10;69.10;;;;;;;-0.81;91.79;97934.87;2243044;79;20936;-77
2022/11/21 07:47:59;;;;;;;204.13;74.57;;;;;;;-0.75;91.85;97930.00;2242763;79;20959;-80
2022/11/21 07:51:03;;;;;;;152.10;71.37;;;;;;;-0.71;91.86;97928.44;2244661;79;20987;-77
2022/11/21 07:54:02;;;;;;;168.40;73.67;;;;;;;-0.60;92.05;97926.31;2243900;79;20896;-80
2022/11/21 07:57:02;;;;;;;139.33;69.97;;;;;;;-0.51;91.94;97917.30;2247177;79;20984;-82
2022/11/21 08:00:02;;;;;;;138.87;72.80;;;;;;;-0.41;91.72;97918.55;2246765;79;20920;-80
2022/11/21 08:03:03;;;;;;;140.77;69.17;;;;;;;-0.32;91.69;97924.03;2246527;79;21415;-82
2022/11/21 08:06:03;;;;;;;138.73;71.17;;;;;;;-0.21;91.59;97912.91;2245511;79;21311;-81
2022/11/21 08:09:03;;;;;;;143.37;69.00;;;;;;;-0.09;91.51;97909.12;2245589;79;20912;-80
2022/11/21 08:12:04;;;;;;;142.90;67.27;;;;;;;0.03;91.46;97897.62;2245612;79;20983;-80
2022/11/21 08:15:05;;;;;;;129.70;66.17;;;;;;;0.13;91.45;97901.86;2245118;79;21007;-79
2022/11/21 08:18:05;;;;;;;130.90;63.37;;;;;;;0.22;91.17;97912.88;2245017;79;20964;-79
2022/11/21 08:21:05;;;;;;;131.53;63.33;;;;;;;0.28;91.37;97897.70;2245904;79;20900;-82
2022/11/21 08:24:09;;;;;;;128.07;63.93;;;;;;;0.33;91.37;97896.19;2245680;79;20928;-78
2022/11/21 08:27:06;;;;;;;138.10;64.47;;;;;;;0.42;91.39;97895.64;2246119;79;21332;-79
2022/11/21 08:30:06;;;;;;;120.43;61.33;;;;;;;0.50;91.33;97888.67;2246754;79;20916;-79
2022/11/21 08:33:10;;;;;;;130.90;65.43;;;;;;;0.59;91.22;97887.72;2246885;79;21601;-79
2022/11/21 08:36:10;;;;;;;124.00;64.03;;;;;;;0.66;91.01;97890.09;2246636;79;20948;-81
2022/11/21 08:39:11;;;;;;;144.63;68.10;;;;;;;0.67;90.92;97887.11;2246255;79;21320;-81
2022/11/21 08:42:11;;;;;;;126.10;60.00;;;;;;;0.66;91.07;97882.39;2246473;79;20905;-79
2022/11/21 08:45:13;;;;;;;182.43;68.33;;;;;;;0.56;92.00;97894.03;2244325;79;20912;-79
2022/11/21 08:48:14;;;;;;;130.50;61.17;;;;;;;0.54;91.59;97894.39;2246555;79;20897;-80
2022/11/21 08:51:14;;;;;;;128.53;61.23;;;;;;;0.60;91.76;97886.90;2246465;79;21320;-80
2022/11/21 08:54:15;;;;;;;130.10;64.50;;;;;;;0.80;91.81;97882.86;2245756;79;21316;-80
2022/11/21 08:57:15;;;;;;;129.37;64.40;;;;;;;1.04;91.50;97879.00;2245906;79;20944;-78
2022/11/21 09:00:15;;;;;;;133.87;66.60;;;;;;;1.15;91.19;97872.11;2246455;79;20951;-81
2022/11/21 09:03:16;;;;;;;128.37;67.27;;;;;;;1.38;90.87;97869.00;2246089;79;20944;-79
2022/11/21 09:06:16;;;;;;;124.50;65.30;;;;;;;1.60;90.21;97857.27;2246732;79;21316;-79
2022/11/21 09:09:17;;;;;;;127.77;67.23;;;;;;;1.72;89.51;97863.62;2246153;79;21427;-79
2022/11/21 09:12:17;;;;;;;135.10;66.80;;;;;;;1.72;89.27;97864.49;2246515;79;20928;-78
2022/11/21 09:18:36;;;;;;;118.70;64.20;;;;;;;1.84;88.83;97864.90;2246220;79;20908;-79
2022/11/21 09:21:37;;;;;;;125.80;64.47;;;;;;;1.90;88.44;97867.66;2246550;79;20920;-79
2022/11/21 09:24:37;;;;;;;113.40;64.60;;;;;;;1.93;87.96;97855.70;2245736;79;20964;-78
2022/11/21 09:27:38;;;;;;;125.20;67.57;;;;;;;1.89;87.73;97868.48;2245558;79;20908;-78
2022/11/21 09:30:38;;;;;;;134.53;63.67;;;;;;;2.02;87.98;97855.98;2246053;79;20971;-78
2022/11/21 09:33:38;;;;;;;105.83;60.93;;;;;;;2.13;87.50;97853.30;2244819;79;20988;-79
2022/11/21 09:36:39;;;;;;;140.83;64.30;;;;;;;2.05;87.55;97847.05;2244835;79;20899;-79
2022/11/21 09:39:39;;;;;;;117.80;62.37;;;;;;;2.10;87.80;97853.21;2244241;79;21297;-78
2022/11/21 09:42:40;;;;;;;106.40;57.17;;;;;;;2.23;87.62;97842.44;2245508;79;20968;-79
2022/11/21 09:45:40;;;;;;;108.23;59.50;;;;;;;2.35;87.36;97845.35;2246304;79;20944;-78
2022/11/21 09:48:40;;;;;;;106.97;59.70;;;;;;;2.42;86.89;97838.25;2246367;79;20920;-79
2022/11/21 09:51:41;;;;;;;106.70;59.43;;;;;;;2.53;87.14;97839.84;2244330;79;20983;-79
2022/11/21 09:54:41;;;;;;;105.93;59.13;;;;;;;2.60;86.63;97840.48;2243077;79;20905;-79
2022/11/21 09:57:42;;;;;;;105.83;58.83;;;;;;;2.70;86.66;97840.31;2243186;79;20924;-79
2022/11/21 10:00:43;;;;;;;98.60;56.97;;;;;;;2.84;86.28;97848.00;2242643;79;20885;-79
2022/11/21 10:03:43;;;;;;;119.17;55.57;;;;;;;2.98;86.29;97836.75;2241683;79;20984;-78
2022/11/21 10:06:55;;;;;;;91.73;54.20;;;;;;;3.22;86.03;97833.48;2242674;79;20954;-79
2022/11/21 10:09:55;;;;;;;91.40;52.47;;;;;;;3.40;85.28;97829.19;2243102;79;20944;-78
2022/11/21 10:12:56;;;;;;;81.57;47.93;;;;;;;3.47;83.70;97829.81;2244029;79;20916;-79
2022/11/21 10:15:56;;;;;;;94.40;53.57;;;;;;;3.45;83.11;97819.84;2243144;79;20928;-80
2022/11/21 10:18:57;;;;;;;82.90;49.13;;;;;;;3.51;83.08;97817.02;2243187;79;20924;-79
2022/11/21 10:21:57;;;;;;;98.03;48.60;;;;;;;3.54;83.62;97823.96;2243026;79;20893;-79
2022/11/21 10:24:57;;;;;;;77.13;46.00;;;;;;;3.70;83.68;97822.18;2243264;79;20897;-79
2022/11/21 10:27:58;;;;;;;78.90;46.20;;;;;;;3.84;82.44;97825.06;2242577;79;21641;-81
2022/11/21 10:30:58;;;;;;;84.07;43.47;;;;;;;3.75;82.18;97825.73;2242630;79;20991;-78
2022/11/21 10:33:59;;;;;;;74.03;46.70;;;;;;;3.71;81.91;97816.18;2242003;79;21051;-80
2022/11/21 10:36:59;;;;;;;129.97;46.53;;;;;;;3.67;82.13;97822.11;2242352;79;20928;-81
2022/11/21 10:39:59;;;;;;;78.13;45.73;;;;;;;3.65;82.10;97826.37;2243673;79;20920;-80
2022/11/21 10:45:15;;;;;;;79.23;46.30;;;;;;;3.62;82.49;97817.27;2243592;79;20920;-78
2022/11/21 10:46:00;;;;;;;86.93;41.90;;;;;;;3.63;81.34;97800.08;2243387;79;21087;-82
2022/11/21 10:49:01;;;;;;;78.27;45.17;;;;;;;3.63;81.34;97800.08;2243886;79;20928;-81
2022/11/21 10:52:01;;;;;;;72.70;43.03;;;;;;;3.62;81.58;97806.95;2246430;79;20965;-81
2022/11/21 10:55:01;;;;;;;75.53;44.90;;;;;;;3.74;81.96;97796.02;2247660;79;20916;-81
2022/11/21 10:58:02;;;;;;;81.13;45.13;;;;;;;3.74;81.96;97796.02;2247377;79;20939;-79
2022/11/21 11:01:02;;;;;;;67.93;40.13;;;;;;;3.90;81.84;97799.38;2246280;79;20948;-79
2022/11/21 11:04:03;;;;;;;64.73;40.27;;;;;;;4.02;81.21;97802.22;2246090;79;20988;-80
2022/11/21 11:07:03;;;;;;;124.93;43.73;;;;;;;4.05;80.36;97803.99;2245701;79;20884;-78
2022/11/21 11:10:04;;;;;;;58.77;37.40;;;;;;;4.09;81.24;97805.80;2246075;79;20927;-79
2022/11/21 11:16:23;;;;;;;57.40;34.07;;;;;;;4.15;80.38;97795.59;2246026;79;20944;-79
2022/11/21 11:19:23;;;;;;;57.40;35.97;;;;;;;4.20;80.04;97792.69;2244968;79;20916;-79
2022/11/21 11:22:23;;;;;;;51.53;32.50;;;;;;;4.20;80.24;97786.23;2245258;79;20904;-78
2022/11/21 11:25:24;;;;;;;56.13;33.53;;;;;;;4.13;79.42;97786.52;2244715;79;21325;-79
2022/11/21 11:28:24;;;;;;;56.20;35.50;;;;;;;4.04;80.16;97785.47;2244944;79;20892;-79
2022/11/21 11:31:25;;;;;;;60.83;35.40;;;;;;;4.02;80.04;97785.86;2245060;79;20916;-79
2022/11/21 11:34:25;;;;;;;70.00;35.43;;;;;;;3.93;80.36;97788.25;2245878;79;20955;-80
2022/11/21 11:37:25;;;;;;;54.73;35.93;;;;;;;3.83;80.36;97790.64;2246383;79;20963;-78
2022/11/21 11:40:26;;;;;;;79.67;35.63;;;;;;;3.78;80.77;97784.50;2247011;79;20884;-80
2022/11/21 11:50:13;;;;;;;53.80;31.90;;;;;;;3.96;81.01;97777.56;2246856;79;21284;-78
2022/11/21 11:53:13;;;;;;;52.90;31.80;;;;;;;3.99;80.50;97773.75;2245796;79;21114;-78
2022/11/21 11:56:13;;;;;;;58.93;32.93;;;;;;;4.09;80.72;97767.94;2245892;79;20917;-79
2022/11/21 11:59:14;;;;;;;57.70;31.30;;;;;;;4.10;80.56;97772.26;2245460;79;20901;-78
2022/11/21 12:02:14;;;;;;;51.80;31.00;;;;;;;4.08;80.59;97766.19;2245955;79;21640;-79
2022/11/21 12:05:14;;;;;;;49.83;30.07;;;;;;;4.07;80.27;97773.91;2246427;79;20964;-78
2022/11/21 12:08:15;;;;;;;45.13;29.60;;;;;;;4.06;80.49;97774.33;2246654;79;20908;-80
2022/11/21 12:17:53;;;;;;;47.10;29.83;;;;;;;4.27;80.21;97763.97;2246352;79;20901;-79
2022/11/21 12:20:53;;;;;;;44.33;28.63;;;;;;;4.38;79.74;97768.53;2247347;79;20940;-79
2022/11/21 12:23:53;;;;;;;45.97;28.73;;;;;;;4.40;79.62;97765.55;2247141;79;21367;-79
2022/11/21 12:26:54;;;;;;;45.63;28.40;;;;;;;4.47;78.93;97767.41;2246430;79;20920;-79
2022/11/21 12:29:55;;;;;;;53.37;29.83;;;;;;;4.45;78.99;97758.76;2246528;79;20928;-78
2022/11/21 12:32:55;;;;;;;46.77;29.27;;;;;;;4.39;79.30;97757.35;2246128;79;21339;-79
2022/11/21 12:35:55;;;;;;;46.53;28.87;;;;;;;4.31;79.29;97757.59;2245875;79;20955;-79
2022/11/21 12:38:56;;;;;;;47.70;28.77;;;;;;;4.21;79.41;97754.39;2246573;79;21007;-79
2022/11/21 12:45:15;;;;;;;139.43;32.57;;;;;;;4.15;79.61;97746.52;2247418;79;20939;-79
2022/11/21 12:54:53;;;;;;;38.93;25.00;;;;;;;4.09;79.78;97743.40;2240355;79;20947;-78
2022/11/21 12:57:53;;;;;;;77.70;28.57;;;;;;;4.07;79.86;97748.08;2239908;79;20924;-78
2022/11/21 13:00:54;;;;;;;49.33;27.70;;;;;;;4.07;80.04;97744.21;2239600;79;21376;-79
2022/11/21 13:03:54;;;;;;;45.77;27.63;;;;;;;4.02;79.91;97747.99;2240041;79;21356;-79
2022/11/21 13:06:54;;;;;;;42.20;27.63;;;;;;;3.98;80.11;97741.45;2239349;79;20948;-78
2022/11/21 13:09:55;;;;;;;38.27;23.90;;;;;;;4.02;80.27;97745.83;2238016;79;20909;-79
2022/11/21 13:12:55;;;;;;;43.53;26.70;;;;;;;4.11;80.19;97740.84;2238092;79;20904;-79
2022/11/21 13:15:56;;;;;;;41.27;26.70;;;;;;;4.18;80.12;97744.42;2237975;79;20947;-78
2022/11/21 13:18:56;;;;;;;48.80;26.17;;;;;;;4.21;79.90;97739.31;2238463;79;21229;-80
2022/11/21 13:21:57;;;;;;;45.20;25.43;;;;;;;4.19;79.71;97747.03;2238722;79;20948;-80
2022/11/21 13:24:57;;;;;;;314.83;40.70;;;;;;;4.17;79.77;97748.72;2238396;79;20951;-79
2022/11/21 13:27:58;;;;;;;48.83;25.07;;;;;;;4.14;79.72;97746.07;2238793;79;21758;-81
2022/11/21 13:30:58;;;;;;;38.93;25.53;;;;;;;4.14;79.57;97738.33;2238369;79;20941;-79
2022/11/21 13:33:58;;;;;;;39.80;25.77;;;;;;;4.06;79.57;97736.88;2238150;79;21008;-78
2022/11/21 13:36:59;;;;;;;42.80;26.10;;;;;;;3.99;79.64;97741.90;2238046;79;20948;-78
2022/11/21 13:39:59;;;;;;;40.97;25.20;;;;;;;3.96;79.87;97741.84;2239503;79;20900;-80
2022/11/21 13:43:00;;;;;;;40.57;25.17;;;;;;;3.93;79.88;97746.52;2239914;79;20893;-81
2022/11/21 13:46:00;;;;;;;41.83;26.27;;;;;;;3.87;79.78;97751.98;2239635;79;20936;-79
2022/11/21 13:49:02;;;;;;;41.57;25.63;;;;;;;3.80;80.07;97757.44;2237932;79;20892;-80
2022/11/21 13:52:03;;;;;;;42.57;26.90;;;;;;;3.78;80.29;97751.37;2241796;79;21356;-80
2022/11/21 13:55:03;;;;;;;49.20;27.83;;;;;;;3.71;80.18;97746.92;2246039;79;20948;-80
2022/11/21 13:58:03;;;;;;;53.47;29.57;;;;;;;3.66;80.57;97754.98;2245905;79;20920;-79
2022/11/21 14:01:04;;;;;;;42.67;27.63;;;;;;;3.59;80.71;97754.39;2245570;79;20959;-81
2022/11/21 14:04:04;;;;;;;46.30;27.73;;;;;;;3.57;80.93;97756.95;2245726;79;20967;-79
2022/11/21 14:07:05;;;;;;;43.47;27.23;;;;;;;3.53;80.88;97752.97;2246276;79;21341;-79
2022/11/21 14:10:05;;;;;;;47.93;27.90;;;;;;;3.45;81.06;97750.19;2245534;79;21408;-81
2022/11/21 14:13:05;;;;;;;45.83;26.17;;;;;;;3.39;81.17;97748.77;2245752;79;20964;-80
2022/11/21 14:16:06;;;;;;;45.77;27.20;;;;;;;4.10;87.15;97743.84;2245976;79;20931;-82
2022/11/21 14:19:06;;;;;;;45.43;27.53;;;;;;;4.21;81.58;97738.89;2245796;79;20932;-82
2022/11/21 14:22:07;;;;;;;45.37;26.10;;;;;;;4.02;80.80;97740.25;2245419;79;20912;-82
2022/11/21 14:25:07;;;;;;;46.60;27.43;;;;;;;3.81;80.43;97734.66;2245153;79;20983;-85
2022/11/21 14:28:07;;;;;;;42.97;25.87;;;;;;;4.59;83.61;97731.00;2244853;79;21320;-83